Main page
Satellite images 10-day forecastsClimateMarine weather Cyclones Lightning AirportsFAQ Newsletter About
Weather : Europe Africa North America South America Asia Australia-Oceania Others
Languages Contact

Alpine, Texas, United States

Alpine-Casparis Municipal Airport

latitude: 30-23-03N, longitude: 103-41-00W, elevation: 1376 m


METAR: KE38 052215Z AUTO 10007KT 10SM OVC016 01/M02 A3045 RMK AO2 T00061017
TAF: missing

Time: 16:26 (22:26 UTC)

Current weather observation

The report was made 11 minutes ago, at 22:15 UTC
Wind 7 kt from the East
Temperature 1°C
Humidity 80%
Pressure 1031 hPa
Visibility: 16.1 km
Overcast at a height of 1600 ft

Change units
The information on this site is subject to a disclaimer
Weather : Europe Africa North America South America Asia Australia-Oceania Others
Satellite images 10-day forecastsClimateMarine weather Cyclones Lightning AirportsFAQ Languages Contact Newsletter About